LFPM 051830Z AUTO 01006KT 340V040 CAVOK 25/10 Q1023

Sorties Club
belle sortie vers AMBOISE et chateau de CHAMBORD le 20/05/2017

Remerciements a Kevin et Valentin pour l'organisation de cette sortie et aux instructeurs pour l'encadrement



Chateau CHAMBORD photo Repas Amboise photo Amboise au sol photo
Chenonceau photo Patrouille photo Vu du ciel photo